Sunday, February 17, 2019, 3:17 PM EST
Back to Local

KPSM, Pease Air Force Base / Portsmouth

Location: Portsmouth, NH, United States Lat: 43.083
Local Time: 3:17 PM EST (20:17 GMT) Lon: -70.817
Time Zone: US/Eastern Elev: 101 ft

Show me the last for .
Show Coded

Time T Td Feel RH Dir Speed Gust Alt SLP Vis Weather Sky Remarks
2019-02-17 13:56 30 8 26 37 170° 3 - 30.05 30.06 10 FEW250 None
2019-02-17 12:56 30 6 - 35 - Calm - 30.08 30.09 10 FEW250 6-hr Min Temp (1pm): 18.5°F
6-hr Max Temp (1pm): 29.7°F
2019-02-17 11:56 28 5 - 35 - Calm - 30.09 30.10 10 FEW250 None
2019-02-17 10:56 27 5 23 37 270° 3 - 30.11 30.12 10 FEW250 None
2019-02-17 09:56 25 6 17 42 310° 7 - 30.12 30.13 10 FEW250 None
2019-02-17 08:56 23 6 14 46 310° 8 - 30.11 30.12 10 CLR None
2019-02-17 07:56 21 7 12 53 290° 7 - 30.09 30.10 10 CLR None
2019-02-17 06:56 19 7 12 61 280° 5 - 30.07 30.08 10 CLR 6-hr Min Temp (7am): 18.5°F
6-hr Max Temp (7am): 23.2°F
2019-02-17 05:56 20 8 11 59 270° 7 - 30.05 30.06 10 CLR None
2019-02-17 04:56 20 8 13 57 270° 6 - 30.02 30.03 10 CLR None
2019-02-17 03:56 21 9 12 58 270° 7 - 30.01 30.02 10 CLR None
2019-02-17 02:56 21 9 13 57 280° 7 - 30.01 30.02 10 SCT250 None
2019-02-17 01:56 22 9 18 55 290° 3 - 30.01 30.02 10 SCT250 None
2019-02-17 00:56 23 10 14 56 310° 8 - 29.99 30.00 10 BKN250 6-hr Min Temp (1am): 23.2°F
6-hr Max Temp (1am): 33.6°F
2019-02-16 23:56 25 10 11 54 320° 17 - 29.96 29.97 10 BKN250 24-hr Min Temp (12am): 24.6°F
24-hr Max Temp (12am): 39.2°F
2019-02-16 22:56 26 13 15 56 310° 13 - 29.94 29.95 10 CLR None
2019-02-16 21:56 28 11 17 46 290° 16 - 29.92 29.93 10 CLR None
2019-02-16 19:56 32 17 20 53 300° 15 21 29.87 29.88 10 CLR None
2019-02-16 18:56 34 17 26 48 280° 10 - 29.85 29.86 10 CLR 6-hr Min Temp (7pm): 33.6°F
6-hr Max Temp (7pm): 39.2°F
2019-02-16 17:56 35 16 23 45 290° 13 23 29.83 29.84 10 FEW048 None
2019-02-16 16:56 37 18 28 45 290° 13 - 29.78 29.79 10 FEW048 None
2019-02-16 15:56 38 19 30 47 290° 13 - 29.76 29.77 10 FEW050 None

Support USWX by starting your Amazon purchase here.